Aigle, Switzerland
Current Conditions -  °F | °C
As of 10:50 AM on Friday 19 Dec 2014 (Local Time) from LSMS Reporting Station
Scattered Clouds Scattered Clouds  
Wind Chill: 43°   Ceiling: Unl
Heat Index: 43°   Visibility: 6mi
Dew Point: 39°   Wind: 2mph
Humidity: 87%   Direction: 70°ENE
Pressure: 30.33"   Gusts: NA
Location:  46.32°N, 6.95°E
Report Text: LSMS 190950Z 07002KT 9999 SCT025 SCT100 06/04 Q1027
Loading
Personal Weather Stations






























Interactive Weather Map New forecast layout! Learn more

10-Day Weather Forecast

Advertisements
Track Severe Weather on mobile